Thedford, Canada
Current Conditions -  °F | °C
As of 6:00 PM on Wednesday 17 Dec 2014 (Local Time) from CYZR Reporting Station
Overcast Overcast  
Wind Chill: 19°   Ceiling: 2500
Heat Index: 30°   Visibility: 9mi
Dew Point: 21°   Wind: 15mph
Humidity: 69%   Direction: 260°W
Pressure: 30.05"   Gusts: 23mph
Location:  43.17°N, 81.85°W
Report Text: CYZR 172300Z AUTO 26013G20KT 9SM BKN025 OVC034 M01/M06 A3005 RMK SLP183
Loading
Personal Weather Stations






























Interactive Weather Map New forecast layout! Learn more

10-Day Weather Forecast

Advertisements
Track Severe Weather on mobile